KMOX/MOX METAR and TAF weather

Enter ICAO airport designator
Station Type Date Time Source
KMOX METAR 2020/02/13 00:06 UTC NOAA

KMOX 130006Z AUTO 33028G34KT 2SM HZ M26/M31 A3023 RMK AO2 SKY OBSCURED TS


Station Type Date Time Source
KMOX Decoded METAR 2020/02/13 00:06 UTC NOAA

Morris, Morris Municipal Airport, MN, United States (KMOX) 45-34N 095-58W
Feb 12, 2020 - 07:06 PM EST / 2020.02.13 0006 UTC
Wind: from the NNW (330 degrees) at 32 MPH (28 KT) gusting to 39 MPH (34 KT):0
Visibility: 2 mile(s):0
Weather: haze
Temperature: -14 F (-26 C)
Windchill: -45 F (-43 C):2
Dew Point: -23 F (-31 C)
Relative Humidity: 62%
Pressure (altimeter): 30.23 in. Hg (1023 hPa)
ob: KMOX 130006Z AUTO 33028G34KT 2SM HZ M26/M31 A3023 RMK AO2 SKY OBSCURED TS
cycle: 0

Station Type Date Time Source
KMOX TAF UTC NOAA

Error!

Example: see airport list